Skip Navigation Links Skip Navigation Links

Current Weather

Wautoma Muni, Wautoma, Wis.

For information only: do not use for flight planning or navigation.
Latest weather
Observation time Friday, December 3, 2021 2:56 AM CST
Local time Friday, December 3, 2021 3:15 AM CST
Flight conditions Conditions unknown
Winds
Wind direction East-Northeast (70°)
Wind speed 3 mph
Sky condition
Ceiling 1,800 ft. overcast
Cloud layer overcast 1,800 ft.
Temperature 32°F
Dewpoint 31°F
Altimeter 30.07 in.Hg
Derived measurements
Relative humidity 96%
Wind chill 29°F
Density altitude -1058 ft.
Sea-level pressure 30.08 in.Hg
Remarks
Fully automated report.
System requires maintenance.
Automated weather observing station with precipitation discriminator.
Present weather sensor not operating.
Freezing rain sensor not operating.
METAR KY50 030856Z AUTO 07003KT OVC018 00/M01 A3007 RMK AO2 SLP186 T00001006 PWINO FZRANO $

Settings

Location code

InnerDrive.Weather 4.0.6770.0 Release CLR 4.0.30319.42000
Copyright ©2018 Inner Drive Technology. All rights reserved. Portions Copyright ©1986-2018 David Braverman.

Find weather

Site navigation


Skip Navigation Links

Place info

Page info

PayPal - The safer, easier way to pay online!

Return home.

Copyright ©2021 Inner Drive Technology. Purveyors of fine, hand-crafted computer software. Page printed 2021-12-03T09:15:50 UTC.